Time,TemperatureF,DewpointF,PressureIn,WindDirection,WindDirectionDegrees,WindSpeedMPH,WindSpeedGustMPH,Humidity,HourlyPrecipIn,Conditions,Clouds,dailyrainin,SoftwareType,DateUTC
2013-07-30 00:01:00,67.4,64.0,30.10,NNE,29,0.0,0.0,89,0.00,RA,,0.00,WeatherDisplay:10.37,2013-07-30 04:01:00,
2013-07-30 00:02:00,67.4,64.7,30.10,NNE,30,0.0,0.0,91,0.00,RA,,0.00,WeatherDisplay:10.37,2013-07-30 04:02:00,
2013-07-30 00:03:00,67.3,64.6,30.10,NNE,29,0.0,0.0,91,0.00,RA,,0.00,WeatherDisplay:10.37,2013-07-30 04:03:00,
2013-07-30 00:04:00,67.3,64.6,30.10,NNE,29,0.0,0.0,91,0.00,RA,,0.00,WeatherDisplay:10.37,2013-07-30 04:04:00,
2013-07-30 00:09:00,67.2,64.5,30.10,NNE,30,0.0,0.0,91,0.00,RA,,0.00,WeatherDisplay:10.37,2013-07-30 04:09:00,
2013-07-30 00:14:00,67.0,64.3,30.10,NNE,30,0.0,0.0,91,0.00,,,0.00,WeatherDisplay:10.37,2013-07-30 04:14:00,
2013-07-30 00:19:00,66.9,64.2,30.10,NNE,30,0.0,0.0,91,0.00,,,0.00,WeatherDisplay:10.37,2013-07-30 04:19:00,
2013-07-30 00:24:00,66.7,64.0,30.10,NNE,29,0.0,0.0,91,0.00,,,0.00,WeatherDisplay:10.37,2013-07-30 04:24:00,
2013-07-30 00:29:00,66.6,63.9,30.10,NNE,30,0.0,0.0,91,0.00,,,0.00,WeatherDisplay:10.37,2013-07-30 04:29:00,
2013-07-30 00:34:00,66.5,63.8,30.10,NNE,29,0.0,0.0,91,0.00,,,0.00,WeatherDisplay:10.37,2013-07-30 04:34:00,
2013-07-30 00:39:00,66.3,63.6,30.10,NNE,30,0.0,0.0,91,0.00,,,0.00,WeatherDisplay:10.37,2013-07-30 04:39:00,
2013-07-30 00:44:00,66.2,63.5,30.10,NNE,30,0.0,0.0,91,0.00,,,0.00,WeatherDisplay:10.37,2013-07-30 04:44:00,
2013-07-30 00:49:00,66.0,63.3,30.10,NNE,29,0.0,0.0,91,0.00,,,0.00,WeatherDisplay:10.37,2013-07-30 04:49:00,
2013-07-30 00:54:00,66.0,63.6,30.10,NNE,30,0.0,0.0,92,0.00,,,0.00,WeatherDisplay:10.37,2013-07-30 04:54:00,
2013-07-30 00:59:00,65.9,63.2,30.10,NNE,29,0.0,0.0,91,0.00,,,0.00,WeatherDisplay:10.37,2013-07-30 04:59:00,
2013-07-30 01:04:00,65.9,63.5,30.10,NNE,30,0.0,0.0,92,0.00,,,0.00,WeatherDisplay:10.37,2013-07-30 05:04:00,
2013-07-30 01:09:00,65.9,63.5,30.10,NNE,29,0.0,0.0,92,0.00,,,0.00,WeatherDisplay:10.37,2013-07-30 05:09:00,
2013-07-30 01:14:00,66.0,63.6,30.11,NNE,30,0.0,0.0,92,0.00,,,0.00,WeatherDisplay:10.37,2013-07-30 05:14:00,
2013-07-30 01:19:00,66.0,63.6,30.11,NNE,30,0.0,0.0,92,0.00,,,0.00,WeatherDisplay:10.37,2013-07-30 05:19:00,
2013-07-30 01:24:00,66.0,63.9,30.11,NNE,29,0.0,0.0,93,0.00,,,0.00,WeatherDisplay:10.37,2013-07-30 05:24:00,
2013-07-30 01:29:00,66.0,63.9,30.11,NNE,29,0.0,0.0,93,0.00,,,0.00,WeatherDisplay:10.37,2013-07-30 05:29:00,
2013-07-30 01:34:00,65.9,63.8,30.11,NNE,29,0.0,0.0,93,0.00,,,0.00,WeatherDisplay:10.37,2013-07-30 05:34:00,
2013-07-30 01:39:00,65.9,63.8,30.11,NNE,30,0.0,0.0,93,0.00,,,0.00,WeatherDisplay:10.37,2013-07-30 05:39:00,
2013-07-30 01:44:00,65.9,63.8,30.11,NNE,30,0.0,0.0,93,0.00,,,0.00,WeatherDisplay:10.37,2013-07-30 05:44:00,
2013-07-30 01:49:00,65.8,63.7,30.11,NNE,29,0.0,0.0,93,0.00,,,0.00,WeatherDisplay:10.37,2013-07-30 05:49:00,
2013-07-30 01:54:00,65.7,63.6,30.10,NNE,30,0.0,0.0,93,0.00,,,0.00,WeatherDisplay:10.37,2013-07-30 05:54:00,
2013-07-30 01:59:00,65.6,63.5,30.10,NNE,29,0.0,0.0,93,0.00,,,0.00,WeatherDisplay:10.37,2013-07-30 05:59:00,
2013-07-30 02:04:00,65.5,63.4,30.10,NNE,30,0.0,0.0,93,0.00,,,0.00,WeatherDisplay:10.37,2013-07-30 06:04:00,
2013-07-30 02:09:00,65.5,63.4,30.10,NNE,29,0.0,0.0,93,0.00,,,0.00,WeatherDisplay:10.37,2013-07-30 06:09:00,
2013-07-30 02:14:00,65.4,63.3,30.10,NNE,30,0.0,0.0,93,0.00,,,0.00,WeatherDisplay:10.37,2013-07-30 06:14:00,
2013-07-30 02:19:00,65.2,63.1,30.10,NNE,29,0.0,0.0,93,0.00,,,0.00,WeatherDisplay:10.37,2013-07-30 06:19:00,
2013-07-30 02:24:00,65.1,63.0,30.10,NNE,29,0.0,0.0,93,0.00,,,0.00,WeatherDisplay:10.37,2013-07-30 06:24:00,
2013-07-30 02:29:00,65.0,62.9,30.11,NNE,30,0.0,0.0,93,0.00,,,0.00,WeatherDisplay:10.37,2013-07-30 06:29:00,
2013-07-30 02:34:00,64.9,62.8,30.11,NNE,30,0.0,0.0,93,0.00,,,0.00,WeatherDisplay:10.37,2013-07-30 06:34:00,
2013-07-30 02:39:00,64.8,62.7,30.11,NNE,30,0.0,0.0,93,0.00,,,0.00,WeatherDisplay:10.37,2013-07-30 06:39:00,
2013-07-30 02:44:00,64.7,62.6,30.11,NNE,29,0.0,0.0,93,0.00,,,0.00,WeatherDisplay:10.37,2013-07-30 06:44:00,
2013-07-30 02:49:00,64.6,62.5,30.10,NNE,30,0.0,0.0,93,0.00,,,0.00,WeatherDisplay:10.37,2013-07-30 06:49:00,
2013-07-30 02:54:00,64.6,62.5,30.10,NNE,29,0.0,0.0,93,0.00,,,0.00,WeatherDisplay:10.37,2013-07-30 06:54:00,
2013-07-30 02:59:00,64.5,62.7,30.10,NNE,29,0.0,0.0,94,0.00,,,0.00,WeatherDisplay:10.37,2013-07-30 06:59:00,
2013-07-30 03:04:00,64.5,62.7,30.10,NNE,30,0.0,0.0,94,0.00,,,0.00,WeatherDisplay:10.37,2013-07-30 07:04:00,
2013-07-30 03:09:00,64.5,62.7,30.10,NNE,30,0.0,0.0,94,0.00,,,0.00,WeatherDisplay:10.37,2013-07-30 07:09:00,
2013-07-30 03:14:00,64.4,62.6,30.10,NNE,30,0.0,0.0,94,0.00,,,0.00,WeatherDisplay:10.37,2013-07-30 07:14:00,
2013-07-30 03:19:00,64.3,62.5,30.10,NNE,29,0.0,0.0,94,0.00,,,0.00,WeatherDisplay:10.37,2013-07-30 07:19:00,
2013-07-30 03:24:00,64.3,62.5,30.10,NNE,30,0.0,0.0,94,0.00,,,0.00,WeatherDisplay:10.37,2013-07-30 07:24:00,
2013-07-30 03:29:00,64.2,62.4,30.10,NNE,30,0.0,0.0,94,0.00,,,0.00,WeatherDisplay:10.37,2013-07-30 07:29:00,
2013-07-30 03:34:00,64.0,62.2,30.10,NNE,30,0.0,0.0,94,0.00,,,0.00,WeatherDisplay:10.37,2013-07-30 07:34:00,
2013-07-30 03:39:00,63.9,62.1,30.10,NNE,29,0.0,0.0,94,0.00,,,0.00,WeatherDisplay:10.37,2013-07-30 07:39:00,
2013-07-30 03:44:00,63.8,62.0,30.10,NNE,30,0.0,0.0,94,0.00,,,0.00,WeatherDisplay:10.37,2013-07-30 07:44:00,
2013-07-30 03:49:00,63.7,61.9,30.10,NNE,30,0.0,0.0,94,0.00,,,0.00,WeatherDisplay:10.37,2013-07-30 07:49:00,
2013-07-30 03:54:00,63.7,61.9,30.10,NNE,29,0.0,0.0,94,0.00,,,0.00,WeatherDisplay:10.37,2013-07-30 07:54:00,
2013-07-30 03:59:00,63.6,61.8,30.10,NNE,29,0.0,0.0,94,0.00,,,0.00,WeatherDisplay:10.37,2013-07-30 07:59:00,
2013-07-30 04:04:00,63.5,61.7,30.10,NNE,30,0.0,0.0,94,0.00,,,0.00,WeatherDisplay:10.37,2013-07-30 08:04:00,
2013-07-30 04:09:00,63.4,61.6,30.09,NNE,30,0.0,0.0,94,0.00,,,0.00,WeatherDisplay:10.37,2013-07-30 08:09:00,
2013-07-30 04:14:00,63.4,61.6,30.09,NNE,29,0.0,0.0,94,0.00,,,0.00,WeatherDisplay:10.37,2013-07-30 08:14:00,
2013-07-30 04:19:00,63.4,61.6,30.09,NNE,30,0.0,0.0,94,0.00,,,0.00,WeatherDisplay:10.37,2013-07-30 08:19:00,
2013-07-30 04:24:00,63.3,61.5,30.09,NNE,30,0.0,0.0,94,0.00,,,0.00,WeatherDisplay:10.37,2013-07-30 08:24:00,
2013-07-30 04:29:00,63.3,61.5,30.09,NNE,30,0.0,0.0,94,0.00,,,0.00,WeatherDisplay:10.37,2013-07-30 08:29:00,
2013-07-30 04:34:00,63.2,61.4,30.10,NNE,30,0.0,0.0,94,0.00,,,0.00,WeatherDisplay:10.37,2013-07-30 08:34:00,
2013-07-30 04:39:00,63.1,61.3,30.09,NNE,30,0.0,0.0,94,0.00,,,0.00,WeatherDisplay:10.37,2013-07-30 08:39:00,
2013-07-30 04:44:00,63.0,61.2,30.09,NNE,29,0.0,0.0,94,0.00,,,0.00,WeatherDisplay:10.37,2013-07-30 08:44:00,
2013-07-30 04:49:00,62.9,61.1,30.10,NNE,30,0.0,0.0,94,0.00,,,0.00,WeatherDisplay:10.37,2013-07-30 08:49:00,
2013-07-30 04:54:00,62.8,61.0,30.10,NNE,29,0.0,0.0,94,0.00,,,0.00,WeatherDisplay:10.37,2013-07-30 08:54:00,
2013-07-30 04:59:00,62.7,60.9,30.10,NNE,29,0.0,0.0,94,0.00,,,0.00,WeatherDisplay:10.37,2013-07-30 08:59:00,
2013-07-30 05:04:00,62.6,60.8,30.10,NNE,29,0.0,0.0,94,0.00,,,0.00,WeatherDisplay:10.37,2013-07-30 09:04:00,
2013-07-30 05:09:00,62.5,60.7,30.10,NNE,30,0.0,0.0,94,0.00,,,0.00,WeatherDisplay:10.37,2013-07-30 09:09:00,
2013-07-30 05:14:00,62.3,60.6,30.10,NNE,30,0.0,0.0,94,0.00,,,0.00,WeatherDisplay:10.37,2013-07-30 09:14:00,
2013-07-30 05:19:00,62.2,60.5,30.10,NNE,29,0.0,0.0,94,0.00,,,0.00,WeatherDisplay:10.37,2013-07-30 09:19:00,
2013-07-30 05:24:00,62.1,60.4,30.11,NNE,30,0.0,0.0,94,0.00,,,0.00,WeatherDisplay:10.37,2013-07-30 09:24:00,
2013-07-30 05:29:00,62.0,60.3,30.10,NNE,29,0.0,0.0,94,0.00,,,0.00,WeatherDisplay:10.37,2013-07-30 09:29:00,
2013-07-30 05:34:00,61.9,60.5,30.10,NNE,29,0.0,0.0,95,0.00,,,0.00,WeatherDisplay:10.37,2013-07-30 09:34:00,
2013-07-30 05:40:00,61.9,60.5,30.11,NNE,30,0.0,0.0,95,0.00,,,0.00,WeatherDisplay:10.37,2013-07-30 09:40:00,
2013-07-30 05:45:00,61.9,60.5,30.11,NNE,30,0.0,0.0,95,0.00,,,0.00,WeatherDisplay:10.37,2013-07-30 09:45:00,
2013-07-30 05:50:00,61.9,60.5,30.11,NNE,30,0.0,0.0,95,0.00,,,0.00,WeatherDisplay:10.37,2013-07-30 09:50:00,
2013-07-30 05:55:00,61.9,60.5,30.11,NNE,30,0.0,0.0,95,0.00,,,0.00,WeatherDisplay:10.37,2013-07-30 09:55:00,
2013-07-30 06:00:00,61.9,60.5,30.11,NNE,30,0.0,0.0,95,0.00,,,0.00,WeatherDisplay:10.37,2013-07-30 10:00:00,
2013-07-30 06:05:00,61.9,60.5,30.12,NNE,30,0.0,0.0,95,0.00,,,0.00,WeatherDisplay:10.37,2013-07-30 10:05:00,
2013-07-30 06:10:00,61.9,60.5,30.12,NNE,29,0.0,0.0,95,0.00,,,0.00,WeatherDisplay:10.37,2013-07-30 10:10:00,
2013-07-30 06:15:00,62.0,60.6,30.12,NNE,30,0.0,0.0,95,0.00,,,0.00,WeatherDisplay:10.37,2013-07-30 10:15:00,
2013-07-30 06:20:00,62.0,60.6,30.12,NNE,30,0.0,0.0,95,0.00,,,0.00,WeatherDisplay:10.37,2013-07-30 10:20:00,
2013-07-30 06:25:00,62.0,60.6,30.13,NNE,30,0.0,0.0,95,0.00,,,0.00,WeatherDisplay:10.37,2013-07-30 10:25:00,
2013-07-30 06:30:00,62.0,60.6,30.13,NNE,30,0.0,0.0,95,0.00,,,0.00,WeatherDisplay:10.37,2013-07-30 10:30:00,
2013-07-30 06:35:00,62.0,60.6,30.13,NNE,30,0.0,0.0,95,0.00,,,0.00,WeatherDisplay:10.37,2013-07-30 10:35:00,
2013-07-30 06:40:00,62.0,60.6,30.13,NE,37,0.0,0.0,95,0.00,,,0.00,WeatherDisplay:10.37,2013-07-30 10:40:00,
2013-07-30 06:45:00,62.0,60.6,30.14,NE,37,0.0,0.0,95,0.00,,,0.00,WeatherDisplay:10.37,2013-07-30 10:45:00,
2013-07-30 06:50:00,62.0,60.6,30.14,NE,37,0.0,0.0,95,0.00,,,0.00,WeatherDisplay:10.37,2013-07-30 10:50:00,
2013-07-30 06:55:00,62.1,60.9,30.14,NE,36,0.0,0.0,96,0.00,,,0.00,WeatherDisplay:10.37,2013-07-30 10:55:00,
2013-07-30 07:00:00,62.1,60.9,30.14,NE,36,0.0,0.0,96,0.00,,,0.00,WeatherDisplay:10.37,2013-07-30 11:00:00,
2013-07-30 07:05:00,62.3,61.1,30.14,NE,36,0.0,0.0,96,0.00,,,0.00,WeatherDisplay:10.37,2013-07-30 11:05:00,
2013-07-30 07:10:00,62.3,61.1,30.15,NE,36,0.0,0.0,96,0.00,,,0.00,WeatherDisplay:10.37,2013-07-30 11:10:00,
2013-07-30 07:15:00,62.4,61.2,30.15,NE,42,0.0,0.0,96,0.00,,,0.00,WeatherDisplay:10.37,2013-07-30 11:15:00,
2013-07-30 07:20:00,62.5,61.3,30.15,NE,41,0.0,0.0,96,0.00,,,0.00,WeatherDisplay:10.37,2013-07-30 11:20:00,
2013-07-30 07:25:00,62.7,61.5,30.15,NE,42,0.0,0.0,96,0.00,,,0.00,WeatherDisplay:10.37,2013-07-30 11:25:00,
2013-07-30 07:30:00,63.0,61.8,30.15,NE,41,0.0,0.0,96,0.00,,,0.00,WeatherDisplay:10.37,2013-07-30 11:30:00,
2013-07-30 07:35:00,63.4,62.2,30.15,NE,42,0.0,0.0,96,0.00,,,0.00,WeatherDisplay:10.37,2013-07-30 11:35:00,
2013-07-30 07:40:00,63.7,63.1,30.16,NE,42,0.0,0.0,98,0.00,,,0.00,WeatherDisplay:10.37,2013-07-30 11:40:00,
2013-07-30 07:45:00,64.0,63.4,30.16,NE,42,0.0,0.0,98,0.00,,,0.00,WeatherDisplay:10.37,2013-07-30 11:45:00,
2013-07-30 07:50:00,64.5,63.9,30.16,NE,42,3.5,3.5,98,0.00,,,0.00,WeatherDisplay:10.37,2013-07-30 11:50:00,
2013-07-30 07:55:00,65.0,64.4,30.16,NE,42,1.2,1.2,98,0.00,,,0.00,WeatherDisplay:10.37,2013-07-30 11:55:00,
2013-07-30 08:00:00,65.6,65.0,30.16,NE,41,0.0,0.0,98,0.00,,,0.00,WeatherDisplay:10.37,2013-07-30 12:00:00,
2013-07-30 08:05:00,66.1,65.5,30.16,NE,44,0.0,0.0,98,0.00,,,0.00,WeatherDisplay:10.37,2013-07-30 12:05:00,
2013-07-30 08:10:00,66.6,66.0,30.16,NE,45,0.0,0.0,98,0.00,,,0.00,WeatherDisplay:10.37,2013-07-30 12:10:00,
2013-07-30 08:15:00,67.0,66.4,30.16,NE,45,0.0,0.0,98,0.00,,,0.00,WeatherDisplay:10.37,2013-07-30 12:15:00,
2013-07-30 08:20:00,67.3,66.7,30.17,NE,45,0.0,0.0,98,0.00,,,0.00,WeatherDisplay:10.37,2013-07-30 12:20:00,
2013-07-30 08:25:00,67.6,67.0,30.17,NE,45,0.0,0.0,98,0.00,,,0.00,WeatherDisplay:10.37,2013-07-30 12:25:00,
2013-07-30 08:30:00,68.0,67.4,30.17,NE,45,0.0,0.0,98,0.00,,,0.00,WeatherDisplay:10.37,2013-07-30 12:30:00,
2013-07-30 08:35:00,68.6,68.0,30.17,NE,45,0.0,0.0,98,0.00,,,0.00,WeatherDisplay:10.37,2013-07-30 12:35:00,
2013-07-30 08:40:00,69.1,68.5,30.17,NE,45,0.0,0.0,98,0.00,,,0.00,WeatherDisplay:10.37,2013-07-30 12:40:00,
2013-07-30 08:45:00,69.7,69.4,30.17,NE,45,0.0,0.0,99,0.00,,,0.00,WeatherDisplay:10.37,2013-07-30 12:45:00,
2013-07-30 08:50:00,70.1,69.5,30.17,West,275,0.0,0.0,98,0.00,,,0.00,WeatherDisplay:10.37,2013-07-30 12:50:00,
2013-07-30 08:55:00,70.4,69.8,30.17,West,275,0.0,0.0,98,0.00,,,0.00,WeatherDisplay:10.37,2013-07-30 12:55:00,
2013-07-30 09:00:00,70.6,70.0,30.17,West,275,0.0,0.0,98,0.00,,,0.00,WeatherDisplay:10.37,2013-07-30 13:00:00,
2013-07-30 09:05:00,71.1,70.5,30.17,WSW,239,0.0,0.0,98,0.00,,,0.00,WeatherDisplay:10.37,2013-07-30 13:05:00,
2013-07-30 09:10:00,71.9,71.3,30.17,WSW,239,0.0,0.0,98,0.00,,,0.00,WeatherDisplay:10.37,2013-07-30 13:10:00,
2013-07-30 09:15:00,72.3,71.1,30.17,WSW,238,0.0,0.0,96,0.00,,,0.00,WeatherDisplay:10.37,2013-07-30 13:15:00,
2013-07-30 09:20:00,73.2,72.0,30.17,WSW,239,0.0,0.0,96,0.00,,,0.00,WeatherDisplay:10.37,2013-07-30 13:20:00,
2013-07-30 09:25:00,74.0,72.2,30.16,WSW,239,0.0,0.0,94,0.00,,,0.00,WeatherDisplay:10.37,2013-07-30 13:25:00,
2013-07-30 09:30:00,74.7,72.2,30.16,East,101,0.0,0.0,92,0.00,,,0.00,WeatherDisplay:10.37,2013-07-30 13:30:00,
2013-07-30 09:35:00,75.5,72.0,30.16,East,101,0.0,0.0,89,0.00,,,0.00,WeatherDisplay:10.37,2013-07-30 13:35:00,
2013-07-30 09:40:00,76.3,72.1,30.16,East,101,0.0,0.0,87,0.00,,,0.00,WeatherDisplay:10.37,2013-07-30 13:40:00,
2013-07-30 09:45:00,77.1,72.6,30.16,ESE,102,3.5,3.5,86,0.00,,,0.00,WeatherDisplay:10.37,2013-07-30 13:45:00,
2013-07-30 09:50:00,78.0,72.8,30.16,ESE,119,1.2,1.2,84,0.00,,,0.00,WeatherDisplay:10.37,2013-07-30 13:50:00,
2013-07-30 09:55:00,78.7,72.4,30.16,ESE,118,0.0,0.0,81,0.00,,,0.00,WeatherDisplay:10.37,2013-07-30 13:55:00,
2013-07-30 10:00:00,79.4,72.3,30.16,ESE,117,3.5,3.5,79,0.00,,,0.00,WeatherDisplay:10.37,2013-07-30 14:00:00,
2013-07-30 10:05:00,79.9,72.8,30.16,East,97,5.8,5.8,79,0.00,,,0.00,WeatherDisplay:10.37,2013-07-30 14:05:00,
2013-07-30 10:10:00,80.4,72.9,30.16,East,97,0.0,0.0,78,0.00,,,0.00,WeatherDisplay:10.37,2013-07-30 14:10:00,
2013-07-30 10:15:00,80.7,72.0,30.16,East,93,1.2,0.0,75,0.00,,,0.00,WeatherDisplay:10.37,2013-07-30 14:15:00,
2013-07-30 10:20:00,81.2,72.9,30.16,East,92,0.0,0.0,76,0.00,,,0.00,WeatherDisplay:10.37,2013-07-30 14:20:00,
2013-07-30 10:25:00,81.4,71.9,30.16,ESE,110,1.2,0.0,73,0.00,,,0.00,WeatherDisplay:10.37,2013-07-30 14:25:00,
2013-07-30 10:30:00,81.8,71.5,30.16,SE,134,3.5,3.5,71,0.00,,,0.00,WeatherDisplay:10.37,2013-07-30 14:30:00,
2013-07-30 10:35:00,82.1,71.8,30.16,SE,132,1.2,1.2,71,0.00,,,0.00,WeatherDisplay:10.37,2013-07-30 14:35:00,
2013-07-30 10:40:00,82.4,71.2,30.16,East,88,0.0,0.0,69,0.00,,,0.00,WeatherDisplay:10.37,2013-07-30 14:40:00,
2013-07-30 10:45:00,83.0,70.9,30.16,South,176,1.2,0.0,67,0.00,,,0.00,WeatherDisplay:10.37,2013-07-30 14:45:00,
2013-07-30 10:50:00,83.3,69.8,30.16,South,176,0.0,0.0,64,0.00,,,0.00,WeatherDisplay:10.37,2013-07-30 14:50:00,
2013-07-30 10:55:00,83.3,68.9,30.16,South,172,2.3,2.3,62,0.00,,,0.00,WeatherDisplay:10.37,2013-07-30 14:55:00,
2013-07-30 11:00:00,83.6,69.2,30.15,SSE,167,0.0,0.0,62,0.00,,,0.00,WeatherDisplay:10.37,2013-07-30 15:00:00,
2013-07-30 11:05:00,84.0,70.0,30.15,ESE,120,5.8,5.8,63,0.00,,,0.00,WeatherDisplay:10.37,2013-07-30 15:05:00,
2013-07-30 11:10:00,84.2,68.3,30.15,ESE,115,2.3,2.3,59,0.00,,,0.00,WeatherDisplay:10.37,2013-07-30 15:10:00,
2013-07-30 11:15:00,84.3,70.3,30.15,SSE,156,5.0,5.0,63,0.00,,,0.00,WeatherDisplay:10.37,2013-07-30 15:15:00,
2013-07-30 11:20:00,84.4,68.0,30.15,ENE,75,3.5,3.5,58,0.00,,,0.00,WeatherDisplay:10.37,2013-07-30 15:20:00,
2013-07-30 11:25:00,84.4,67.0,30.15,ENE,74,4.6,4.6,56,0.00,,,0.00,WeatherDisplay:10.37,2013-07-30 15:25:00,
2013-07-30 11:30:00,84.6,67.2,30.15,East,88,3.5,3.5,56,0.00,,,0.00,WeatherDisplay:10.37,2013-07-30 15:30:00,
2013-07-30 11:35:00,85.0,67.0,30.15,SE,128,1.2,1.2,55,0.00,,,0.00,WeatherDisplay:10.37,2013-07-30 15:35:00,
2013-07-30 11:40:00,85.2,67.2,30.15,SE,128,1.2,0.0,55,0.00,,,0.00,WeatherDisplay:10.37,2013-07-30 15:40:00,
2013-07-30 11:45:00,85.1,68.2,30.15,SE,125,0.0,0.0,57,0.00,,,0.00,WeatherDisplay:10.37,2013-07-30 15:45:00,
2013-07-30 11:50:00,85.0,67.5,30.14,East,96,3.5,3.5,56,0.00,,,0.00,WeatherDisplay:10.37,2013-07-30 15:50:00,
2013-07-30 11:55:00,85.2,68.2,30.14,ESE,123,5.8,5.8,57,0.00,,,0.00,WeatherDisplay:10.37,2013-07-30 15:55:00,
2013-07-30 12:00:00,85.5,67.5,30.14,SE,129,1.2,0.0,55,0.00,,,0.00,WeatherDisplay:10.37,2013-07-30 16:00:00,
2013-07-30 12:05:00,85.5,67.5,30.14,SE,130,1.0,0.0,55,0.00,,,0.00,WeatherDisplay:10.37,2013-07-30 16:05:00,
2013-07-30 12:10:00,85.3,67.3,30.14,NE,55,3.5,3.5,55,0.00,,,0.00,WeatherDisplay:10.37,2013-07-30 16:10:00,
2013-07-30 12:15:00,85.0,67.0,30.14,NW,307,1.2,1.2,55,0.00,,,0.00,WeatherDisplay:10.37,2013-07-30 16:15:00,
2013-07-30 12:20:00,85.2,69.3,30.14,ESE,102,4.6,4.6,59,0.00,,,0.00,WeatherDisplay:10.37,2013-07-30 16:20:00,
2013-07-30 12:25:00,84.9,67.5,30.14,ESE,110,4.6,4.6,56,0.00,,,0.00,WeatherDisplay:10.37,2013-07-30 16:25:00,
2013-07-30 12:30:00,84.3,67.9,30.14,SE,140,2.3,2.3,58,0.00,,,0.00,WeatherDisplay:10.37,2013-07-30 16:30:00,
2013-07-30 12:35:00,84.0,67.6,30.14,SE,138,0.0,0.0,58,0.00,,,0.00,WeatherDisplay:10.37,2013-07-30 16:35:00,
2013-07-30 12:40:00,84.3,68.4,30.14,SE,138,1.2,0.0,59,0.00,,,0.00,WeatherDisplay:10.37,2013-07-30 16:40:00,
2013-07-30 12:45:00,84.8,67.9,30.14,SE,140,5.8,5.8,57,0.00,,,0.00,WeatherDisplay:10.37,2013-07-30 16:45:00,
2013-07-30 12:50:00,85.2,67.2,30.13,SSE,162,4.6,4.6,55,0.00,,,0.00,WeatherDisplay:10.37,2013-07-30 16:50:00,
2013-07-30 12:55:00,85.6,67.6,30.13,SW,218,5.8,5.8,55,0.00,,,0.00,WeatherDisplay:10.37,2013-07-30 16:55:00,
2013-07-30 13:00:00,85.9,67.9,30.13,SW,216,3.5,3.5,55,0.00,,,0.00,WeatherDisplay:10.37,2013-07-30 17:00:00,
2013-07-30 13:05:00,86.1,69.1,30.13,ESE,113,4.6,4.6,57,0.00,,,0.00,WeatherDisplay:10.37,2013-07-30 17:05:00,
2013-07-30 13:10:00,86.3,68.2,30.13,SE,131,4.0,4.0,55,0.00,,,0.00,WeatherDisplay:10.37,2013-07-30 17:10:00,
2013-07-30 13:15:00,86.1,66.4,30.13,ESE,105,2.3,2.3,52,0.00,,,0.00,WeatherDisplay:10.37,2013-07-30 17:15:00,
2013-07-30 13:20:00,85.9,66.2,30.13,ESE,107,1.2,1.2,52,0.00,,,0.00,WeatherDisplay:10.37,2013-07-30 17:20:00,
2013-07-30 13:25:00,85.9,67.9,30.13,SSE,167,1.2,1.2,55,0.00,,,0.00,WeatherDisplay:10.37,2013-07-30 17:25:00,
2013-07-30 13:30:00,85.7,67.7,30.13,South,169,1.2,0.0,55,0.00,,,0.00,WeatherDisplay:10.37,2013-07-30 17:30:00,
2013-07-30 13:35:00,85.5,67.0,30.13,South,187,3.5,0.0,54,0.00,,,0.00,WeatherDisplay:10.37,2013-07-30 17:35:00,
2013-07-30 13:41:00,85.3,66.2,30.12,South,188,1.2,0.0,53,0.00,,,0.00,WeatherDisplay:10.37,2013-07-30 17:41:00,
2013-07-30 13:46:00,85.2,67.7,30.12,SW,235,1.2,1.2,56,0.00,,,0.00,WeatherDisplay:10.37,2013-07-30 17:46:00,
2013-07-30 13:51:00,85.1,67.6,30.12,SW,235,2.3,0.0,56,0.00,,,0.00,WeatherDisplay:10.37,2013-07-30 17:51:00,
2013-07-30 13:56:00,85.3,67.3,30.12,SW,235,3.5,3.5,55,0.00,,,0.00,WeatherDisplay:10.37,2013-07-30 17:56:00,
2013-07-30 14:01:00,85.4,66.9,30.12,SW,234,3.5,3.5,54,0.00,,,0.00,WeatherDisplay:10.37,2013-07-30 18:01:00,
2013-07-30 14:06:00,85.7,67.1,30.12,SSE,160,3.5,3.5,54,0.00,,,0.00,WeatherDisplay:10.37,2013-07-30 18:06:00,
2013-07-30 14:11:00,86.0,68.0,30.11,SE,124,5.8,0.0,55,0.00,,,0.00,WeatherDisplay:10.37,2013-07-30 18:11:00,
2013-07-30 14:16:00,86.4,67.8,30.11,WNW,296,3.5,3.5,54,0.00,,,0.00,WeatherDisplay:10.37,2013-07-30 18:16:00,
2013-07-30 14:21:00,87.0,67.8,30.11,WNW,296,3.5,3.5,53,0.00,,,0.00,WeatherDisplay:10.37,2013-07-30 18:21:00,
2013-07-30 14:26:00,87.5,67.7,30.11,WNW,286,3.5,3.5,52,0.00,,,0.00,WeatherDisplay:10.37,2013-07-30 18:26:00,
2013-07-30 14:31:00,87.6,66.7,30.11,SW,217,3.5,3.5,50,0.00,,,0.00,WeatherDisplay:10.37,2013-07-30 18:31:00,
2013-07-30 14:36:00,87.6,67.2,30.10,SW,215,3.5,3.5,51,0.00,,,0.00,WeatherDisplay:10.37,2013-07-30 18:36:00,
2013-07-30 14:41:00,87.5,67.7,30.10,SW,215,0.0,0.0,52,0.00,,,0.00,WeatherDisplay:10.37,2013-07-30 18:41:00,
2013-07-30 14:46:00,87.3,68.1,30.10,SW,215,0.0,0.0,53,0.00,,,0.00,WeatherDisplay:10.37,2013-07-30 18:46:00,
2013-07-30 14:51:00,87.1,67.3,30.10,SW,215,0.0,0.0,52,0.00,,,0.00,WeatherDisplay:10.37,2013-07-30 18:51:00,
2013-07-30 14:56:00,87.0,68.3,30.10,SW,214,0.0,0.0,54,0.00,,,0.00,WeatherDisplay:10.37,2013-07-30 18:56:00,
2013-07-30 15:01:00,87.3,69.2,30.10,SW,215,2.3,2.3,55,0.00,,,0.00,WeatherDisplay:10.37,2013-07-30 19:01:00,
2013-07-30 15:06:00,87.8,68.5,30.09,SSW,211,3.0,3.1,53,0.00,,,0.00,WeatherDisplay:10.37,2013-07-30 19:06:00,
2013-07-30 15:11:00,88.3,69.0,30.09,SSW,195,8.1,8.1,53,0.00,,,0.00,WeatherDisplay:10.37,2013-07-30 19:11:00,
2013-07-30 15:16:00,88.5,66.9,30.09,SSW,195,1.2,0.0,49,0.00,,,0.00,WeatherDisplay:10.37,2013-07-30 19:16:00,
2013-07-30 15:21:00,88.4,66.2,30.09,SSW,195,0.0,0.0,48,0.00,,,0.00,WeatherDisplay:10.37,2013-07-30 19:21:00,
2013-07-30 15:26:00,87.9,68.1,30.09,SSW,195,1.2,1.2,52,0.00,,,0.00,WeatherDisplay:10.37,2013-07-30 19:26:00,
2013-07-30 15:31:00,87.7,68.4,30.09,SSW,195,1.2,0.0,53,0.00,,,0.00,WeatherDisplay:10.37,2013-07-30 19:31:00,
2013-07-30 15:36:00,87.8,70.7,30.09,SSW,195,3.5,3.5,57,0.00,,,0.00,WeatherDisplay:10.37,2013-07-30 19:36:00,
2013-07-30 15:41:00,88.2,68.4,30.09,SSW,195,0.0,0.0,52,0.00,,,0.00,WeatherDisplay:10.37,2013-07-30 19:41:00,
2013-07-30 15:46:00,88.8,67.8,30.09,SSW,195,3.5,3.5,50,0.00,,,0.00,WeatherDisplay:10.37,2013-07-30 19:46:00,
2013-07-30 15:51:00,89.2,66.9,30.09,WNW,293,1.2,1.2,48,0.00,,,0.00,WeatherDisplay:10.37,2013-07-30 19:51:00,
2013-07-30 15:56:00,89.6,66.7,30.08,WNW,293,1.2,0.0,47,0.00,,,0.00,WeatherDisplay:10.37,2013-07-30 19:56:00,
2013-07-30 16:01:00,90.0,66.4,30.08,WNW,293,1.2,0.0,46,0.00,,,0.00,WeatherDisplay:10.37,2013-07-30 20:01:00,
2013-07-30 16:06:00,89.7,65.5,30.08,NE,38,3.0,3.0,45,0.00,,,0.00,WeatherDisplay:10.37,2013-07-30 20:06:00,
2013-07-30 16:11:00,89.9,68.2,30.08,NE,40,3.5,3.5,49,0.00,,,0.00,WeatherDisplay:10.37,2013-07-30 20:11:00,
2013-07-30 16:16:00,90.0,66.4,30.08,WSW,244,3.5,3.5,46,0.00,,,0.00,WeatherDisplay:10.37,2013-07-30 20:16:00,
2013-07-30 16:21:00,90.0,67.7,30.08,WSW,244,3.5,3.5,48,0.00,,,0.00,WeatherDisplay:10.37,2013-07-30 20:21:00,
2013-07-30 16:26:00,90.2,66.0,30.08,WSW,244,3.5,3.5,45,0.00,,,0.00,WeatherDisplay:10.37,2013-07-30 20:26:00,
2013-07-30 16:31:00,90.6,68.2,30.08,West,259,4.6,4.6,48,0.00,,,0.00,WeatherDisplay:10.37,2013-07-30 20:31:00,
2013-07-30 16:36:00,90.4,64.2,30.08,NW,313,3.5,3.5,42,0.00,,,0.00,WeatherDisplay:10.37,2013-07-30 20:36:00,
2013-07-30 16:42:00,90.4,65.5,30.08,NW,313,4.0,4.0,44,0.00,,,0.00,WeatherDisplay:10.37,2013-07-30 20:42:00,
2013-07-30 16:47:00,90.5,66.9,30.08,NW,314,4.6,4.6,46,0.00,,,0.00,WeatherDisplay:10.37,2013-07-30 20:47:00,
2013-07-30 16:52:00,90.4,65.5,30.08,NW,314,1.2,1.2,44,0.00,,,0.00,WeatherDisplay:10.37,2013-07-30 20:52:00,
2013-07-30 16:57:00,90.3,66.7,30.09,NW,314,2.3,2.3,46,0.00,,,0.00,WeatherDisplay:10.37,2013-07-30 20:57:00,
2013-07-30 17:02:00,90.2,66.0,30.09,NW,314,0.0,0.0,45,0.00,,,0.00,WeatherDisplay:10.37,2013-07-30 21:02:00,
2013-07-30 17:07:00,90.2,68.5,30.09,NW,314,1.2,0.0,49,0.00,,,0.00,WeatherDisplay:10.37,2013-07-30 21:07:00,
2013-07-30 17:12:00,90.2,67.2,30.08,NW,314,0.0,0.1,47,0.00,,,0.00,WeatherDisplay:10.37,2013-07-30 21:12:00,
2013-07-30 17:17:00,90.2,65.3,30.08,NW,314,1.2,1.2,44,0.00,,,0.00,WeatherDisplay:10.37,2013-07-30 21:17:00,
2013-07-30 17:22:00,90.2,67.2,30.08,NW,314,1.2,1.2,47,0.00,,,0.00,WeatherDisplay:10.37,2013-07-30 21:22:00,
2013-07-30 17:27:00,90.1,68.4,30.08,NW,314,0.0,0.0,49,0.00,,,0.00,WeatherDisplay:10.37,2013-07-30 21:27:00,
2013-07-30 17:32:00,89.9,68.8,30.08,NW,314,1.2,0.0,50,0.00,,,0.00,WeatherDisplay:10.37,2013-07-30 21:32:00,
2013-07-30 17:37:00,89.6,67.9,30.08,NW,314,0.0,0.0,49,0.00,,,0.00,WeatherDisplay:10.37,2013-07-30 21:37:00,
2013-07-30 17:42:00,89.3,68.2,30.08,NW,314,0.0,0.0,50,0.00,,,0.00,WeatherDisplay:10.37,2013-07-30 21:42:00,
2013-07-30 17:47:00,89.0,70.2,30.08,NW,314,0.0,0.0,54,0.00,,,0.00,WeatherDisplay:10.37,2013-07-30 21:47:00,
2013-07-30 17:52:00,88.5,70.3,30.08,NW,314,0.0,0.0,55,0.00,,,0.00,WeatherDisplay:10.37,2013-07-30 21:52:00,
2013-07-30 17:57:00,88.1,70.9,30.08,NW,314,0.0,0.0,57,0.00,,,0.00,WeatherDisplay:10.37,2013-07-30 21:57:00,
2013-07-30 18:02:00,87.6,71.0,30.08,NW,314,0.0,0.0,58,0.00,,,0.00,WeatherDisplay:10.37,2013-07-30 22:02:00,
2013-07-30 18:07:00,87.1,70.0,30.09,NW,314,0.0,0.0,57,0.00,,,0.00,WeatherDisplay:10.37,2013-07-30 22:07:00,
2013-07-30 18:12:00,86.9,70.8,30.08,NW,314,0.0,0.0,59,0.00,,,0.00,WeatherDisplay:10.37,2013-07-30 22:12:00,
2013-07-30 18:17:00,86.5,70.5,30.08,NW,314,0.0,0.0,59,0.00,,,0.00,WeatherDisplay:10.37,2013-07-30 22:17:00,
2013-07-30 18:22:00,86.2,70.7,30.08,NW,314,0.0,0.0,60,0.00,,,0.00,WeatherDisplay:10.37,2013-07-30 22:22:00,
2013-07-30 18:27:00,85.9,71.8,30.08,NW,314,0.0,0.0,63,0.00,,,0.00,WeatherDisplay:10.37,2013-07-30 22:27:00,
2013-07-30 18:32:00,85.5,71.5,30.08,NW,314,0.0,0.0,63,0.00,,,0.00,WeatherDisplay:10.37,2013-07-30 22:32:00,
2013-07-30 18:37:00,85.1,72.0,30.08,NW,314,0.0,0.0,65,0.00,,,0.00,WeatherDisplay:10.37,2013-07-30 22:37:00,
2013-07-30 18:42:00,84.7,72.1,30.08,NW,314,0.0,0.0,66,0.00,,,0.00,WeatherDisplay:10.37,2013-07-30 22:42:00,
2013-07-30 18:47:00,84.3,72.1,30.08,NW,314,0.0,0.0,67,0.00,,,0.00,WeatherDisplay:10.37,2013-07-30 22:47:00,
2013-07-30 18:52:00,83.9,72.6,30.08,NW,314,0.0,0.0,69,0.00,,,0.00,WeatherDisplay:10.37,2013-07-30 22:52:00,
2013-07-30 18:57:00,83.6,72.3,30.08,NW,314,0.0,0.0,69,0.00,,,0.00,WeatherDisplay:10.37,2013-07-30 22:57:00,
2013-07-30 19:02:00,83.4,72.6,30.08,NW,314,0.0,0.0,70,0.00,,,0.00,WeatherDisplay:10.37,2013-07-30 23:02:00,
2013-07-30 19:07:00,83.2,72.8,30.08,NW,314,0.0,0.0,71,0.00,,,0.00,WeatherDisplay:10.37,2013-07-30 23:07:00,
2013-07-30 19:12:00,82.8,72.0,30.08,NW,314,0.0,0.0,70,0.00,,,0.00,WeatherDisplay:10.37,2013-07-30 23:12:00,
2013-07-30 19:17:00,82.6,71.8,30.08,NW,314,0.0,0.0,70,0.00,,,0.00,WeatherDisplay:10.37,2013-07-30 23:17:00,
2013-07-30 19:22:00,82.4,72.0,30.09,NW,314,0.0,0.0,71,0.00,,,0.00,WeatherDisplay:10.37,2013-07-30 23:22:00,
2013-07-30 19:27:00,82.1,71.8,30.09,NW,314,0.0,0.0,71,0.00,,,0.00,WeatherDisplay:10.37,2013-07-30 23:27:00,
2013-07-30 19:32:00,81.9,71.6,30.09,NW,314,0.0,0.0,71,0.00,,,0.00,WeatherDisplay:10.37,2013-07-30 23:32:00,
2013-07-30 19:38:00,81.5,71.2,30.09,North,355,0.0,0.0,71,0.00,,,0.00,WeatherDisplay:10.37,2013-07-30 23:38:00,
2013-07-30 19:43:00,81.2,70.9,30.09,North,355,0.0,0.0,71,0.00,,,0.00,WeatherDisplay:10.37,2013-07-30 23:43:00,
2013-07-30 19:48:00,80.8,70.9,30.09,North,355,0.0,0.0,72,0.00,,,0.00,WeatherDisplay:10.37,2013-07-30 23:48:00,
2013-07-30 19:53:00,80.4,70.9,30.09,North,355,0.0,0.0,73,0.00,,,0.00,WeatherDisplay:10.37,2013-07-30 23:53:00,
2013-07-30 19:58:00,80.1,71.5,30.09,North,355,0.0,0.0,75,0.00,,,0.00,WeatherDisplay:10.37,2013-07-30 23:58:00,
2013-07-30 20:03:00,79.7,71.5,30.09,North,355,0.0,0.0,76,0.00,,,0.00,WeatherDisplay:10.37,2013-07-31 00:03:00,
2013-07-30 20:08:00,79.4,71.6,30.09,North,355,0.0,0.0,77,0.00,,,0.00,WeatherDisplay:10.37,2013-07-31 00:08:00,
2013-07-30 20:13:00,79.1,71.3,30.09,North,355,0.0,0.0,77,0.00,,,0.00,WeatherDisplay:10.37,2013-07-31 00:13:00,
2013-07-30 20:18:00,78.8,71.4,30.09,North,355,0.0,0.0,78,0.00,,,0.00,WeatherDisplay:10.37,2013-07-31 00:18:00,
2013-07-30 20:23:00,78.5,71.4,30.09,North,355,0.0,0.0,79,0.00,,,0.00,WeatherDisplay:10.37,2013-07-31 00:23:00,
2013-07-30 20:28:00,78.3,71.2,30.09,North,355,0.0,0.0,79,0.00,,,0.00,WeatherDisplay:10.37,2013-07-31 00:28:00,
2013-07-30 20:33:00,78.0,71.0,30.09,North,355,0.0,0.0,79,0.00,,,0.00,WeatherDisplay:10.37,2013-07-31 00:33:00,
2013-07-30 20:38:00,77.8,71.1,30.09,North,355,0.0,0.0,80,0.00,,,0.00,WeatherDisplay:10.37,2013-07-31 00:38:00,
2013-07-30 20:43:00,77.5,71.2,30.09,North,355,0.0,0.0,81,0.00,,,0.00,WeatherDisplay:10.37,2013-07-31 00:43:00,
2013-07-30 20:48:00,77.3,71.4,30.09,North,355,0.0,0.0,82,0.00,,,0.00,WeatherDisplay:10.37,2013-07-31 00:48:00,
2013-07-30 20:53:00,77.0,71.1,30.09,North,355,0.0,0.0,82,0.00,,,0.00,WeatherDisplay:10.37,2013-07-31 00:53:00,
2013-07-30 20:58:00,76.7,70.8,30.09,North,355,0.0,0.0,82,0.00,,,0.00,WeatherDisplay:10.37,2013-07-31 00:58:00,
2013-07-30 21:03:00,76.4,71.2,30.08,North,355,0.0,0.0,84,0.00,,,0.00,WeatherDisplay:10.37,2013-07-31 01:03:00,
2013-07-30 21:08:00,76.0,70.8,30.09,North,355,0.0,0.0,84,0.00,,,0.00,WeatherDisplay:10.37,2013-07-31 01:08:00,
2013-07-30 21:13:00,75.7,70.9,30.09,North,355,0.0,0.0,85,0.00,,,0.00,WeatherDisplay:10.37,2013-07-31 01:13:00,
2013-07-30 21:18:00,75.5,70.7,30.09,North,355,0.0,0.0,85,0.00,,,0.00,WeatherDisplay:10.37,2013-07-31 01:18:00,
2013-07-30 21:23:00,75.2,70.4,30.09,North,355,0.0,0.0,85,0.00,,,0.00,WeatherDisplay:10.37,2013-07-31 01:23:00,
2013-07-30 21:28:00,74.9,70.1,30.09,North,355,0.0,0.0,85,0.00,,,0.00,WeatherDisplay:10.37,2013-07-31 01:28:00,
2013-07-30 21:33:00,74.8,70.3,30.09,North,355,0.0,0.0,86,0.00,,,0.00,WeatherDisplay:10.37,2013-07-31 01:33:00,
2013-07-30 21:38:00,74.6,70.1,30.09,North,355,0.0,0.0,86,0.00,,,0.00,WeatherDisplay:10.37,2013-07-31 01:38:00,
2013-07-30 21:43:00,74.4,69.9,30.09,North,355,0.0,0.0,86,0.00,,,0.00,WeatherDisplay:10.37,2013-07-31 01:43:00,
2013-07-30 21:48:00,74.2,70.1,30.09,North,355,0.0,0.0,87,0.00,,,0.00,WeatherDisplay:10.37,2013-07-31 01:48:00,
2013-07-30 21:53:00,74.1,70.0,30.09,North,355,0.0,0.0,87,0.00,,,0.00,WeatherDisplay:10.37,2013-07-31 01:53:00,
2013-07-30 21:58:00,73.9,69.8,30.09,North,355,0.0,0.0,87,0.00,,,0.00,WeatherDisplay:10.37,2013-07-31 01:58:00,
2013-07-30 22:03:00,73.8,70.0,30.09,North,355,0.0,0.0,88,0.00,,,0.00,WeatherDisplay:10.37,2013-07-31 02:03:00,
2013-07-30 22:08:00,73.6,69.8,30.09,North,355,0.0,0.0,88,0.00,,,0.00,WeatherDisplay:10.37,2013-07-31 02:08:00,
2013-07-30 22:13:00,73.5,69.7,30.09,North,355,0.0,0.0,88,0.00,,,0.00,WeatherDisplay:10.37,2013-07-31 02:13:00,
2013-07-30 22:18:00,73.4,70.0,30.09,North,355,0.0,0.0,89,0.00,,,0.00,WeatherDisplay:10.37,2013-07-31 02:18:00,
2013-07-30 22:23:00,73.3,69.9,30.09,North,355,0.0,0.0,89,0.00,,,0.00,WeatherDisplay:10.37,2013-07-31 02:23:00,
2013-07-30 22:28:00,73.2,69.8,30.09,North,355,0.0,0.0,89,0.00,,,0.00,WeatherDisplay:10.37,2013-07-31 02:28:00,
2013-07-30 22:33:00,73.1,69.7,30.09,North,355,0.0,0.0,89,0.00,,,0.00,WeatherDisplay:10.37,2013-07-31 02:33:00,
2013-07-30 22:38:00,72.9,70.1,30.09,North,355,0.0,0.0,91,0.00,,,0.00,WeatherDisplay:10.37,2013-07-31 02:38:00,
2013-07-30 22:43:00,72.8,70.0,30.09,North,355,0.0,0.0,91,0.00,,,0.00,WeatherDisplay:10.37,2013-07-31 02:43:00,
2013-07-30 22:48:00,72.7,69.9,30.09,North,355,0.0,0.0,91,0.00,,,0.00,WeatherDisplay:10.37,2013-07-31 02:48:00,
2013-07-30 22:53:00,72.6,69.8,30.09,North,355,0.0,0.0,91,0.00,,,0.00,WeatherDisplay:10.37,2013-07-31 02:53:00,
2013-07-30 22:58:00,72.5,69.7,30.09,North,355,0.0,0.0,91,0.00,,,0.00,WeatherDisplay:10.37,2013-07-31 02:58:00,
2013-07-30 23:03:00,72.5,69.7,30.09,North,355,0.0,0.0,91,0.00,,,0.00,WeatherDisplay:10.37,2013-07-31 03:03:00,
2013-07-30 23:08:00,72.4,69.6,30.09,North,355,0.0,0.0,91,0.00,,,0.00,WeatherDisplay:10.37,2013-07-31 03:08:00,
2013-07-30 23:13:00,72.3,69.5,30.09,North,355,0.0,0.0,91,0.00,,,0.00,WeatherDisplay:10.37,2013-07-31 03:13:00,
2013-07-30 23:18:00,72.4,69.9,30.09,North,355,0.0,0.0,92,0.00,,,0.00,WeatherDisplay:10.37,2013-07-31 03:18:00,
2013-07-30 23:23:00,72.3,69.8,30.09,North,355,0.0,0.0,92,0.00,,,0.00,WeatherDisplay:10.37,2013-07-31 03:23:00,
2013-07-30 23:28:00,72.2,69.7,30.09,North,355,0.0,0.0,92,0.00,,,0.00,WeatherDisplay:10.37,2013-07-31 03:28:00,
2013-07-30 23:33:00,72.2,69.7,30.09,North,355,0.0,0.0,92,0.00,,,0.00,WeatherDisplay:10.37,2013-07-31 03:33:00,
2013-07-30 23:38:00,72.2,69.7,30.09,North,355,0.0,0.0,92,0.00,,,0.00,WeatherDisplay:10.37,2013-07-31 03:38:00,
2013-07-30 23:43:00,72.2,70.1,30.09,North,355,0.0,0.0,93,0.00,,,0.00,WeatherDisplay:10.37,2013-07-31 03:43:00,
2013-07-30 23:48:00,72.2,70.1,30.09,North,355,0.0,0.0,93,0.00,,,0.00,WeatherDisplay:10.37,2013-07-31 03:48:00,
2013-07-30 23:53:00,72.1,69.6,30.09,North,355,0.0,0.0,92,0.00,,,0.00,WeatherDisplay:10.37,2013-07-31 03:53:00,
2013-07-30 23:58:00,72.0,69.5,30.09,North,355,0.0,0.0,92,0.00,,,0.00,WeatherDisplay:10.37,2013-07-31 03:58:00,